sensor_id;sensor_type;location;lat;lon;timestamp;P1;durP1;ratioP1;P2;durP2;ratioP2
3653;SDS011;70277;54.302;10.064;2023-09-07T00:01:48;3.85;;;3.55;;
3653;SDS011;70277;54.302;10.064;2023-09-07T00:04:14;3.60;;;3.30;;
3653;SDS011;70277;54.302;10.064;2023-09-07T00:06:41;9.88;;;3.40;;
3653;SDS011;70277;54.302;10.064;2023-09-07T00:09:10;4.18;;;3.20;;
3653;SDS011;70277;54.302;10.064;2023-09-07T00:11:38;5.50;;;3.42;;
3653;SDS011;70277;54.302;10.064;2023-09-07T00:14:04;4.95;;;3.50;;
3653;SDS011;70277;54.302;10.064;2023-09-07T00:16:31;6.28;;;3.25;;
3653;SDS011;70277;54.302;10.064;2023-09-07T00:19:01;3.63;;;3.25;;
3653;SDS011;70277;54.302;10.064;2023-09-07T00:21:30;6.80;;;3.47;;
3653;SDS011;70277;54.302;10.064;2023-09-07T00:23:57;4.00;;;3.22;;
3653;SDS011;70277;54.302;10.064;2023-09-07T00:26:23;3.70;;;3.40;;
3653;SDS011;70277;54.302;10.064;2023-09-07T00:28:50;4.15;;;3.28;;
3653;SDS011;70277;54.302;10.064;2023-09-07T00:31:16;5.88;;;3.30;;
3653;SDS011;70277;54.302;10.064;2023-09-07T00:33:43;6.25;;;3.30;;
3653;SDS011;70277;54.302;10.064;2023-09-07T00:36:09;8.25;;;3.20;;
3653;SDS011;70277;54.302;10.064;2023-09-07T00:38:36;3.53;;;3.17;;
3653;SDS011;70277;54.302;10.064;2023-09-07T00:41:02;3.40;;;3.10;;
3653;SDS011;70277;54.302;10.064;2023-09-07T00:43:28;4.15;;;3.75;;
3653;SDS011;70277;54.302;10.064;2023-09-07T00:45:56;3.78;;;3.42;;
3653;SDS011;70277;54.302;10.064;2023-09-07T00:48:22;3.60;;;3.22;;
3653;SDS011;70277;54.302;10.064;2023-09-07T00:50:49;4.18;;;3.58;;
3653;SDS011;70277;54.302;10.064;2023-09-07T00:53:16;4.80;;;3.20;;
3653;SDS011;70277;54.302;10.064;2023-09-07T00:55:44;4.20;;;3.80;;
3653;SDS011;70277;54.302;10.064;2023-09-07T00:58:11;5.47;;;3.58;;
3653;SDS011;70277;54.302;10.064;2023-09-07T01:00:38;4.60;;;2.92;;
3653;SDS011;70277;54.302;10.064;2023-09-07T01:03:05;8.55;;;3.38;;
3653;SDS011;70277;54.302;10.064;2023-09-07T01:05:34;3.45;;;3.15;;
3653;SDS011;70277;54.302;10.064;2023-09-07T01:08:10;3.88;;;3.38;;
3653;SDS011;70277;54.302;10.064;2023-09-07T01:10:41;6.88;;;3.45;;
3653;SDS011;70277;54.302;10.064;2023-09-07T01:13:07;5.85;;;2.97;;
3653;SDS011;70277;54.302;10.064;2023-09-07T01:15:34;5.90;;;3.38;;
3653;SDS011;70277;54.302;10.064;2023-09-07T01:18:00;3.63;;;3.35;;
3653;SDS011;70277;54.302;10.064;2023-09-07T01:20:48;7.85;;;3.40;;
3653;SDS011;70277;54.302;10.064;2023-09-07T01:23:15;3.70;;;3.40;;
3653;SDS011;70277;54.302;10.064;2023-09-07T01:25:41;4.38;;;3.60;;
3653;SDS011;70277;54.302;10.064;2023-09-07T01:28:09;5.10;;;3.67;;
3653;SDS011;70277;54.302;10.064;2023-09-07T01:30:36;3.83;;;3.17;;
3653;SDS011;70277;54.302;10.064;2023-09-07T01:33:05;5.05;;;3.53;;
3653;SDS011;70277;54.302;10.064;2023-09-07T01:35:32;4.00;;;3.70;;
3653;SDS011;70277;54.302;10.064;2023-09-07T01:38:02;3.55;;;3.30;;
3653;SDS011;70277;54.302;10.064;2023-09-07T01:40:29;5.53;;;3.50;;
3653;SDS011;70277;54.302;10.064;2023-09-07T01:42:56;5.25;;;3.20;;
3653;SDS011;70277;54.302;10.064;2023-09-07T01:45:22;5.47;;;3.42;;
3653;SDS011;70277;54.302;10.064;2023-09-07T01:47:50;3.70;;;3.40;;
3653;SDS011;70277;54.302;10.064;2023-09-07T01:50:17;5.75;;;3.63;;
3653;SDS011;70277;54.302;10.064;2023-09-07T01:52:47;4.00;;;3.65;;
3653;SDS011;70277;54.302;10.064;2023-09-07T01:55:17;6.68;;;3.70;;
3653;SDS011;70277;54.302;10.064;2023-09-07T01:57:43;6.07;;;3.33;;
3653;SDS011;70277;54.302;10.064;2023-09-07T02:00:13;8.15;;;3.65;;
3653;SDS011;70277;54.302;10.064;2023-09-07T02:02:39;4.03;;;3.72;;
3653;SDS011;70277;54.302;10.064;2023-09-07T02:05:06;5.22;;;3.33;;
3653;SDS011;70277;54.302;10.064;2023-09-07T02:07:33;5.97;;;4.15;;
3653;SDS011;70277;54.302;10.064;2023-09-07T02:10:00;5.50;;;3.00;;
3653;SDS011;70277;54.302;10.064;2023-09-07T02:12:29;4.03;;;3.72;;
3653;SDS011;70277;54.302;10.064;2023-09-07T02:14:56;5.60;;;4.07;;
3653;SDS011;70277;54.302;10.064;2023-09-07T02:17:22;3.65;;;3.33;;
3653;SDS011;70277;54.302;10.064;2023-09-07T02:19:49;5.22;;;3.90;;
3653;SDS011;70277;54.302;10.064;2023-09-07T02:22:16;4.75;;;3.45;;
3653;SDS011;70277;54.302;10.064;2023-09-07T02:24:42;6.47;;;4.00;;
3653;SDS011;70277;54.302;10.064;2023-09-07T02:27:09;5.85;;;3.83;;
3653;SDS011;70277;54.302;10.064;2023-09-07T02:29:35;4.82;;;3.78;;
3653;SDS011;70277;54.302;10.064;2023-09-07T02:32:02;4.43;;;3.85;;
3653;SDS011;70277;54.302;10.064;2023-09-07T02:34:29;6.07;;;4.22;;
3653;SDS011;70277;54.302;10.064;2023-09-07T02:36:56;5.85;;;3.80;;
3653;SDS011;70277;54.302;10.064;2023-09-07T02:39:23;6.78;;;3.63;;
3653;SDS011;70277;54.302;10.064;2023-09-07T02:41:52;3.50;;;3.20;;
3653;SDS011;70277;54.302;10.064;2023-09-07T02:44:19;5.88;;;3.58;;
3653;SDS011;70277;54.302;10.064;2023-09-07T02:46:45;5.57;;;4.28;;
3653;SDS011;70277;54.302;10.064;2023-09-07T02:49:12;3.97;;;3.67;;
3653;SDS011;70277;54.302;10.064;2023-09-07T02:51:38;5.40;;;4.20;;
3653;SDS011;70277;54.302;10.064;2023-09-07T02:54:05;5.38;;;4.05;;
3653;SDS011;70277;54.302;10.064;2023-09-07T02:56:31;5.25;;;3.90;;
3653;SDS011;70277;54.302;10.064;2023-09-07T02:58:58;8.48;;;4.20;;
3653;SDS011;70277;54.302;10.064;2023-09-07T03:01:24;4.03;;;3.63;;
3653;SDS011;70277;54.302;10.064;2023-09-07T03:03:51;6.13;;;3.58;;
3653;SDS011;70277;54.302;10.064;2023-09-07T03:06:18;5.05;;;3.60;;
3653;SDS011;70277;54.302;10.064;2023-09-07T03:08:44;4.13;;;3.60;;
3653;SDS011;70277;54.302;10.064;2023-09-07T03:11:11;13.43;;;3.80;;
3653;SDS011;70277;54.302;10.064;2023-09-07T03:13:38;12.90;;;3.42;;
3653;SDS011;70277;54.302;10.064;2023-09-07T03:16:05;5.35;;;3.75;;
3653;SDS011;70277;54.302;10.064;2023-09-07T03:18:32;8.98;;;3.38;;
3653;SDS011;70277;54.302;10.064;2023-09-07T03:21:00;7.38;;;4.00;;
3653;SDS011;70277;54.302;10.064;2023-09-07T03:23:28;4.30;;;3.80;;
3653;SDS011;70277;54.302;10.064;2023-09-07T03:25:55;4.47;;;3.58;;
3653;SDS011;70277;54.302;10.064;2023-09-07T03:28:22;6.38;;;3.78;;
3653;SDS011;70277;54.302;10.064;2023-09-07T03:30:48;4.03;;;3.30;;
3653;SDS011;70277;54.302;10.064;2023-09-07T03:33:15;6.38;;;3.50;;
3653;SDS011;70277;54.302;10.064;2023-09-07T03:35:41;4.72;;;3.70;;
3653;SDS011;70277;54.302;10.064;2023-09-07T03:38:08;5.50;;;3.63;;
3653;SDS011;70277;54.302;10.064;2023-09-07T03:40:34;9.40;;;3.53;;
3653;SDS011;70277;54.302;10.064;2023-09-07T03:43:01;3.33;;;2.92;;
3653;SDS011;70277;54.302;10.064;2023-09-07T03:45:27;7.18;;;3.65;;
3653;SDS011;70277;54.302;10.064;2023-09-07T03:47:54;3.92;;;3.30;;
3653;SDS011;70277;54.302;10.064;2023-09-07T03:50:20;7.20;;;3.38;;
3653;SDS011;70277;54.302;10.064;2023-09-07T03:52:47;8.45;;;3.40;;
3653;SDS011;70277;54.302;10.064;2023-09-07T03:55:14;3.70;;;3.40;;
3653;SDS011;70277;54.302;10.064;2023-09-07T03:57:40;5.63;;;3.97;;
3653;SDS011;70277;54.302;10.064;2023-09-07T04:00:07;5.57;;;3.60;;
3653;SDS011;70277;54.302;10.064;2023-09-07T04:02:34;4.80;;;3.25;;
3653;SDS011;70277;54.302;10.064;2023-09-07T04:05:01;11.48;;;3.83;;
3653;SDS011;70277;54.302;10.064;2023-09-07T04:07:31;6.93;;;3.83;;
3653;SDS011;70277;54.302;10.064;2023-09-07T04:09:58;4.45;;;3.90;;
3653;SDS011;70277;54.302;10.064;2023-09-07T04:12:24;5.00;;;3.60;;
3653;SDS011;70277;54.302;10.064;2023-09-07T04:14:52;4.90;;;3.45;;
3653;SDS011;70277;54.302;10.064;2023-09-07T04:17:19;3.60;;;3.30;;
3653;SDS011;70277;54.302;10.064;2023-09-07T04:19:45;3.85;;;3.30;;
3653;SDS011;70277;54.302;10.064;2023-09-07T04:22:12;4.57;;;3.75;;
3653;SDS011;70277;54.302;10.064;2023-09-07T04:24:38;6.03;;;3.63;;
3653;SDS011;70277;54.302;10.064;2023-09-07T04:27:06;12.05;;;4.20;;
3653;SDS011;70277;54.302;10.064;2023-09-07T04:29:33;5.82;;;3.72;;
3653;SDS011;70277;54.302;10.064;2023-09-07T04:31:59;5.28;;;3.47;;
3653;SDS011;70277;54.302;10.064;2023-09-07T04:34:26;11.70;;;4.05;;
3653;SDS011;70277;54.302;10.064;2023-09-07T04:36:52;4.60;;;4.05;;
3653;SDS011;70277;54.302;10.064;2023-09-07T04:39:19;5.97;;;3.75;;
3653;SDS011;70277;54.302;10.064;2023-09-07T04:41:45;4.53;;;3.90;;
3653;SDS011;70277;54.302;10.064;2023-09-07T04:44:12;5.60;;;3.95;;
3653;SDS011;70277;54.302;10.064;2023-09-07T04:46:38;6.70;;;3.85;;
3653;SDS011;70277;54.302;10.064;2023-09-07T04:49:05;9.20;;;4.20;;
3653;SDS011;70277;54.302;10.064;2023-09-07T04:51:32;5.05;;;4.35;;
3653;SDS011;70277;54.302;10.064;2023-09-07T04:53:59;4.82;;;3.95;;
3653;SDS011;70277;54.302;10.064;2023-09-07T04:56:25;5.03;;;4.53;;
3653;SDS011;70277;54.302;10.064;2023-09-07T04:58:52;8.55;;;4.47;;
3653;SDS011;70277;54.302;10.064;2023-09-07T05:01:19;5.25;;;3.85;;
3653;SDS011;70277;54.302;10.064;2023-09-07T05:03:45;8.73;;;3.63;;
3653;SDS011;70277;54.302;10.064;2023-09-07T05:06:12;7.95;;;4.07;;
3653;SDS011;70277;54.302;10.064;2023-09-07T05:08:40;6.80;;;3.90;;
3653;SDS011;70277;54.302;10.064;2023-09-07T05:11:06;10.25;;;4.10;;
3653;SDS011;70277;54.302;10.064;2023-09-07T05:13:33;4.10;;;3.70;;
3653;SDS011;70277;54.302;10.064;2023-09-07T05:15:59;11.52;;;4.57;;
3653;SDS011;70277;54.302;10.064;2023-09-07T05:18:27;6.90;;;3.92;;
3653;SDS011;70277;54.302;10.064;2023-09-07T05:20:54;4.85;;;3.95;;
3653;SDS011;70277;54.302;10.064;2023-09-07T05:23:21;5.57;;;3.75;;
3653;SDS011;70277;54.302;10.064;2023-09-07T05:25:49;17.13;;;3.53;;
3653;SDS011;70277;54.302;10.064;2023-09-07T05:28:19;8.93;;;4.38;;
3653;SDS011;70277;54.302;10.064;2023-09-07T05:30:47;9.45;;;4.38;;
3653;SDS011;70277;54.302;10.064;2023-09-07T05:33:15;5.82;;;4.22;;
3653;SDS011;70277;54.302;10.064;2023-09-07T05:35:42;6.70;;;4.50;;
3653;SDS011;70277;54.302;10.064;2023-09-07T05:38:09;5.40;;;4.32;;
3653;SDS011;70277;54.302;10.064;2023-09-07T05:40:36;6.13;;;4.50;;
3653;SDS011;70277;54.302;10.064;2023-09-07T05:43:04;15.23;;;4.88;;
3653;SDS011;70277;54.302;10.064;2023-09-07T05:45:33;9.13;;;4.07;;
3653;SDS011;70277;54.302;10.064;2023-09-07T05:48:03;6.28;;;4.50;;
3653;SDS011;70277;54.302;10.064;2023-09-07T05:50:31;10.15;;;4.90;;
3653;SDS011;70277;54.302;10.064;2023-09-07T05:52:59;6.35;;;4.70;;
3653;SDS011;70277;54.302;10.064;2023-09-07T05:55:26;7.35;;;5.20;;
3653;SDS011;70277;54.302;10.064;2023-09-07T05:57:56;6.65;;;5.18;;
3653;SDS011;70277;54.302;10.064;2023-09-07T06:00:23;9.20;;;5.07;;
3653;SDS011;70277;54.302;10.064;2023-09-07T06:02:50;14.48;;;5.10;;
3653;SDS011;70277;54.302;10.064;2023-09-07T06:05:17;8.80;;;4.78;;
3653;SDS011;70277;54.302;10.064;2023-09-07T06:07:44;8.40;;;4.72;;
3653;SDS011;70277;54.302;10.064;2023-09-07T06:10:10;7.57;;;4.78;;
3653;SDS011;70277;54.302;10.064;2023-09-07T06:12:37;7.53;;;4.70;;
3653;SDS011;70277;54.302;10.064;2023-09-07T06:15:04;10.23;;;5.38;;
3653;SDS011;70277;54.302;10.064;2023-09-07T06:17:30;5.90;;;4.65;;
3653;SDS011;70277;54.302;10.064;2023-09-07T06:19:57;9.55;;;5.10;;
3653;SDS011;70277;54.302;10.064;2023-09-07T06:22:23;6.40;;;4.65;;
3653;SDS011;70277;54.302;10.064;2023-09-07T06:24:50;5.03;;;4.50;;
3653;SDS011;70277;54.302;10.064;2023-09-07T06:27:16;6.93;;;5.13;;
3653;SDS011;70277;54.302;10.064;2023-09-07T06:29:43;14.10;;;4.70;;
3653;SDS011;70277;54.302;10.064;2023-09-07T06:32:10;11.02;;;4.78;;
3653;SDS011;70277;54.302;10.064;2023-09-07T06:34:36;15.82;;;4.45;;
3653;SDS011;70277;54.302;10.064;2023-09-07T06:37:04;5.72;;;3.80;;
3653;SDS011;70277;54.302;10.064;2023-09-07T06:39:30;9.20;;;4.25;;
3653;SDS011;70277;54.302;10.064;2023-09-07T06:41:57;5.20;;;3.85;;
3653;SDS011;70277;54.302;10.064;2023-09-07T06:44:23;6.88;;;4.50;;
3653;SDS011;70277;54.302;10.064;2023-09-07T06:46:50;6.82;;;4.30;;
3653;SDS011;70277;54.302;10.064;2023-09-07T06:49:16;7.80;;;4.35;;
3653;SDS011;70277;54.302;10.064;2023-09-07T06:51:43;5.47;;;3.67;;
3653;SDS011;70277;54.302;10.064;2023-09-07T06:54:09;7.32;;;4.13;;
3653;SDS011;70277;54.302;10.064;2023-09-07T06:56:36;10.23;;;3.40;;
3653;SDS011;70277;54.302;10.064;2023-09-07T06:59:03;5.85;;;4.40;;
3653;SDS011;70277;54.302;10.064;2023-09-07T07:01:29;3.65;;;3.28;;
3653;SDS011;70277;54.302;10.064;2023-09-07T07:03:56;5.63;;;3.60;;
3653;SDS011;70277;54.302;10.064;2023-09-07T07:06:23;5.90;;;3.95;;
3653;SDS011;70277;54.302;10.064;2023-09-07T07:08:51;6.30;;;3.55;;
3653;SDS011;70277;54.302;10.064;2023-09-07T07:11:18;7.07;;;3.28;;
3653;SDS011;70277;54.302;10.064;2023-09-07T07:13:45;9.93;;;3.50;;
3653;SDS011;70277;54.302;10.064;2023-09-07T07:16:12;4.72;;;3.08;;
3653;SDS011;70277;54.302;10.064;2023-09-07T07:18:40;3.67;;;3.38;;
3653;SDS011;70277;54.302;10.064;2023-09-07T07:21:09;3.90;;;3.33;;
3653;SDS011;70277;54.302;10.064;2023-09-07T07:23:36;3.58;;;3.28;;
3653;SDS011;70277;54.302;10.064;2023-09-07T07:26:02;6.38;;;3.50;;
3653;SDS011;70277;54.302;10.064;2023-09-07T07:28:30;4.93;;;3.33;;
3653;SDS011;70277;54.302;10.064;2023-09-07T07:30:56;4.65;;;3.50;;
3653;SDS011;70277;54.302;10.064;2023-09-07T07:33:23;6.18;;;2.85;;
3653;SDS011;70277;54.302;10.064;2023-09-07T07:35:50;8.88;;;3.10;;
3653;SDS011;70277;54.302;10.064;2023-09-07T07:38:17;5.22;;;3.20;;
3653;SDS011;70277;54.302;10.064;2023-09-07T07:40:43;8.35;;;3.22;;
3653;SDS011;70277;54.302;10.064;2023-09-07T07:43:11;6.68;;;3.08;;
3653;SDS011;70277;54.302;10.064;2023-09-07T07:45:39;5.63;;;3.22;;
3653;SDS011;70277;54.302;10.064;2023-09-07T07:48:06;3.53;;;3.00;;
3653;SDS011;70277;54.302;10.064;2023-09-07T07:50:39;6.78;;;3.22;;
3653;SDS011;70277;54.302;10.064;2023-09-07T07:53:06;4.60;;;3.03;;
3653;SDS011;70277;54.302;10.064;2023-09-07T07:55:36;6.10;;;3.08;;
3653;SDS011;70277;54.302;10.064;2023-09-07T07:58:10;3.28;;;2.97;;
3653;SDS011;70277;54.302;10.064;2023-09-07T08:00:37;4.07;;;2.83;;
3653;SDS011;70277;54.302;10.064;2023-09-07T08:03:04;3.25;;;2.95;;
3653;SDS011;70277;54.302;10.064;2023-09-07T08:05:35;5.95;;;3.05;;
3653;SDS011;70277;54.302;10.064;2023-09-07T08:08:01;6.15;;;3.20;;
3653;SDS011;70277;54.302;10.064;2023-09-07T08:10:29;3.38;;;2.90;;
3653;SDS011;70277;54.302;10.064;2023-09-07T08:12:58;6.97;;;2.97;;
3653;SDS011;70277;54.302;10.064;2023-09-07T08:15:24;5.35;;;3.17;;
3653;SDS011;70277;54.302;10.064;2023-09-07T08:17:51;5.88;;;2.70;;
3653;SDS011;70277;54.302;10.064;2023-09-07T08:20:19;5.13;;;2.80;;
3653;SDS011;70277;54.302;10.064;2023-09-07T08:22:45;3.47;;;3.17;;
3653;SDS011;70277;54.302;10.064;2023-09-07T08:25:13;3.58;;;2.78;;
3653;SDS011;70277;54.302;10.064;2023-09-07T08:27:43;3.10;;;2.80;;
3653;SDS011;70277;54.302;10.064;2023-09-07T08:30:11;4.38;;;3.72;;
3653;SDS011;70277;54.302;10.064;2023-09-07T08:32:38;4.70;;;3.20;;
3653;SDS011;70277;54.302;10.064;2023-09-07T08:35:05;7.97;;;3.22;;
3653;SDS011;70277;54.302;10.064;2023-09-07T08:37:34;3.80;;;2.92;;
3653;SDS011;70277;54.302;10.064;2023-09-07T08:40:00;8.88;;;3.50;;
3653;SDS011;70277;54.302;10.064;2023-09-07T08:42:28;4.95;;;3.20;;
3653;SDS011;70277;54.302;10.064;2023-09-07T08:44:55;6.18;;;2.95;;
3653;SDS011;70277;54.302;10.064;2023-09-07T08:47:26;6.20;;;3.22;;
3653;SDS011;70277;54.302;10.064;2023-09-07T08:49:56;5.63;;;3.28;;
3653;SDS011;70277;54.302;10.064;2023-09-07T08:52:23;3.90;;;3.30;;
3653;SDS011;70277;54.302;10.064;2023-09-07T08:54:50;8.38;;;2.95;;
3653;SDS011;70277;54.302;10.064;2023-09-07T08:57:18;7.38;;;3.08;;
3653;SDS011;70277;54.302;10.064;2023-09-07T08:59:47;6.20;;;3.13;;
3653;SDS011;70277;54.302;10.064;2023-09-07T09:02:13;9.32;;;3.50;;
3653;SDS011;70277;54.302;10.064;2023-09-07T09:04:40;5.43;;;3.13;;
3653;SDS011;70277;54.302;10.064;2023-09-07T09:07:06;3.30;;;3.00;;
3653;SDS011;70277;54.302;10.064;2023-09-07T09:09:33;3.78;;;3.00;;
3653;SDS011;70277;54.302;10.064;2023-09-07T09:12:06;6.70;;;2.78;;
3653;SDS011;70277;54.302;10.064;2023-09-07T09:14:34;6.10;;;3.30;;
3653;SDS011;70277;54.302;10.064;2023-09-07T09:17:00;3.67;;;3.20;;
3653;SDS011;70277;54.302;10.064;2023-09-07T09:19:33;5.60;;;3.30;;
3653;SDS011;70277;54.302;10.064;2023-09-07T09:22:00;5.95;;;2.97;;
3653;SDS011;70277;54.302;10.064;2023-09-07T09:24:27;4.70;;;3.00;;
3653;SDS011;70277;54.302;10.064;2023-09-07T09:26:57;11.02;;;3.33;;
3653;SDS011;70277;54.302;10.064;2023-09-07T09:29:23;8.45;;;2.80;;
3653;SDS011;70277;54.302;10.064;2023-09-07T09:31:53;3.28;;;2.97;;
3653;SDS011;70277;54.302;10.064;2023-09-07T09:34:20;4.97;;;2.80;;
3653;SDS011;70277;54.302;10.064;2023-09-07T09:36:46;3.50;;;2.92;;
3653;SDS011;70277;54.302;10.064;2023-09-07T09:39:23;5.32;;;2.90;;
3653;SDS011;70277;54.302;10.064;2023-09-07T09:41:51;3.30;;;3.00;;
3653;SDS011;70277;54.302;10.064;2023-09-07T09:44:22;3.03;;;2.72;;
3653;SDS011;70277;54.302;10.064;2023-09-07T09:46:52;5.72;;;2.60;;
3653;SDS011;70277;54.302;10.064;2023-09-07T09:49:22;7.43;;;4.07;;
3653;SDS011;70277;54.302;10.064;2023-09-07T09:51:49;8.73;;;4.05;;
3653;SDS011;70277;54.302;10.064;2023-09-07T09:54:19;6.00;;;3.05;;
3653;SDS011;70277;54.302;10.064;2023-09-07T09:56:46;4.13;;;2.80;;
3653;SDS011;70277;54.302;10.064;2023-09-07T09:59:14;6.57;;;3.10;;
3653;SDS011;70277;54.302;10.064;2023-09-07T10:01:43;5.28;;;3.33;;
3653;SDS011;70277;54.302;10.064;2023-09-07T10:04:13;4.45;;;2.67;;
3653;SDS011;70277;54.302;10.064;2023-09-07T10:06:49;5.53;;;2.90;;
3653;SDS011;70277;54.302;10.064;2023-09-07T10:09:19;6.43;;;2.95;;
3653;SDS011;70277;54.302;10.064;2023-09-07T10:11:50;6.78;;;2.92;;
3653;SDS011;70277;54.302;10.064;2023-09-07T10:14:19;3.10;;;2.90;;
3653;SDS011;70277;54.302;10.064;2023-09-07T10:16:47;3.13;;;2.83;;
3653;SDS011;70277;54.302;10.064;2023-09-07T10:21:42;3.42;;;3.00;;
3653;SDS011;70277;54.302;10.064;2023-09-07T10:24:08;6.38;;;3.20;;
3653;SDS011;70277;54.302;10.064;2023-09-07T10:26:35;4.25;;;3.38;;
3653;SDS011;70277;54.302;10.064;2023-09-07T10:29:02;3.92;;;3.10;;
3653;SDS011;70277;54.302;10.064;2023-09-07T10:31:31;5.03;;;2.90;;
3653;SDS011;70277;54.302;10.064;2023-09-07T10:34:18;3.55;;;3.03;;
3653;SDS011;70277;54.302;10.064;2023-09-07T10:36:44;4.57;;;2.90;;
3653;SDS011;70277;54.302;10.064;2023-09-07T10:39:12;5.15;;;3.00;;
3653;SDS011;70277;54.302;10.064;2023-09-07T10:41:43;4.03;;;3.20;;
3653;SDS011;70277;54.302;10.064;2023-09-07T10:44:10;7.18;;;2.92;;
3653;SDS011;70277;54.302;10.064;2023-09-07T10:46:38;6.53;;;3.10;;
3653;SDS011;70277;54.302;10.064;2023-09-07T10:49:08;4.13;;;2.90;;
3653;SDS011;70277;54.302;10.064;2023-09-07T10:51:41;4.18;;;2.97;;
3653;SDS011;70277;54.302;10.064;2023-09-07T10:54:16;3.42;;;3.13;;
3653;SDS011;70277;54.302;10.064;2023-09-07T10:56:49;7.43;;;3.30;;
3653;SDS011;70277;54.302;10.064;2023-09-07T10:59:16;3.15;;;2.90;;
3653;SDS011;70277;54.302;10.064;2023-09-07T11:01:43;5.72;;;3.28;;
3653;SDS011;70277;54.302;10.064;2023-09-07T11:04:10;4.72;;;3.10;;
3653;SDS011;70277;54.302;10.064;2023-09-07T11:06:38;3.03;;;2.83;;
3653;SDS011;70277;54.302;10.064;2023-09-07T11:09:06;4.53;;;2.70;;
3653;SDS011;70277;54.302;10.064;2023-09-07T11:11:35;3.20;;;2.95;;
3653;SDS011;70277;54.302;10.064;2023-09-07T11:14:03;2.92;;;2.72;;
3653;SDS011;70277;54.302;10.064;2023-09-07T11:16:32;6.68;;;2.70;;
3653;SDS011;70277;54.302;10.064;2023-09-07T11:19:06;5.63;;;2.90;;
3653;SDS011;70277;54.302;10.064;2023-09-07T11:21:36;3.70;;;2.45;;
3653;SDS011;70277;54.302;10.064;2023-09-07T11:24:02;6.88;;;2.60;;
3653;SDS011;70277;54.302;10.064;2023-09-07T11:26:40;3.30;;;2.38;;
3653;SDS011;70277;54.302;10.064;2023-09-07T11:29:13;3.13;;;2.63;;
3653;SDS011;70277;54.302;10.064;2023-09-07T11:31:43;5.10;;;2.90;;
3653;SDS011;70277;54.302;10.064;2023-09-07T11:34:14;4.85;;;2.70;;
3653;SDS011;70277;54.302;10.064;2023-09-07T11:36:42;3.30;;;2.40;;
3653;SDS011;70277;54.302;10.064;2023-09-07T11:39:09;4.35;;;2.42;;
3653;SDS011;70277;54.302;10.064;2023-09-07T11:41:43;4.13;;;2.60;;
3653;SDS011;70277;54.302;10.064;2023-09-07T11:44:10;6.70;;;2.92;;
3653;SDS011;70277;54.302;10.064;2023-09-07T11:46:39;2.63;;;2.38;;
3653;SDS011;70277;54.302;10.064;2023-09-07T11:49:06;3.17;;;2.53;;
3653;SDS011;70277;54.302;10.064;2023-09-07T11:51:33;10.23;;;2.38;;
3653;SDS011;70277;54.302;10.064;2023-09-07T11:54:01;5.10;;;2.38;;
3653;SDS011;70277;54.302;10.064;2023-09-07T11:56:28;4.93;;;2.55;;
3653;SDS011;70277;54.302;10.064;2023-09-07T11:58:55;6.00;;;2.65;;
3653;SDS011;70277;54.302;10.064;2023-09-07T12:01:22;4.85;;;2.50;;
3653;SDS011;70277;54.302;10.064;2023-09-07T12:03:49;3.72;;;2.38;;
3653;SDS011;70277;54.302;10.064;2023-09-07T12:06:15;4.70;;;2.50;;
3653;SDS011;70277;54.302;10.064;2023-09-07T12:08:42;2.80;;;2.60;;
3653;SDS011;70277;54.302;10.064;2023-09-07T12:11:24;7.03;;;2.72;;
3653;SDS011;70277;54.302;10.064;2023-09-07T12:13:51;3.05;;;2.80;;
3653;SDS011;70277;54.302;10.064;2023-09-07T12:16:17;2.90;;;2.70;;
3653;SDS011;70277;54.302;10.064;2023-09-07T12:18:44;3.00;;;2.80;;
3653;SDS011;70277;54.302;10.064;2023-09-07T12:21:11;5.05;;;2.50;;
3653;SDS011;70277;54.302;10.064;2023-09-07T12:23:37;4.95;;;3.05;;
3653;SDS011;70277;54.302;10.064;2023-09-07T12:26:04;3.25;;;2.75;;
3653;SDS011;70277;54.302;10.064;2023-09-07T12:28:30;3.10;;;2.90;;
3653;SDS011;70277;54.302;10.064;2023-09-07T12:30:57;3.47;;;2.75;;
3653;SDS011;70277;54.302;10.064;2023-09-07T12:33:24;3.22;;;2.92;;
3653;SDS011;70277;54.302;10.064;2023-09-07T12:35:51;3.00;;;2.80;;
3653;SDS011;70277;54.302;10.064;2023-09-07T12:38:17;2.47;;;2.28;;
3653;SDS011;70277;54.302;10.064;2023-09-07T12:43:12;3.28;;;2.67;;
3653;SDS011;70277;54.302;10.064;2023-09-07T12:45:39;7.10;;;2.70;;
3653;SDS011;70277;54.302;10.064;2023-09-07T12:48:08;5.07;;;2.80;;
3653;SDS011;70277;54.302;10.064;2023-09-07T12:50:35;3.20;;;2.55;;
3653;SDS011;70277;54.302;10.064;2023-09-07T12:53:02;5.57;;;3.10;;
3653;SDS011;70277;54.302;10.064;2023-09-07T12:55:28;3.17;;;2.88;;
3653;SDS011;70277;54.302;10.064;2023-09-07T12:57:56;2.85;;;2.63;;
3653;SDS011;70277;54.302;10.064;2023-09-07T13:00:22;5.43;;;3.03;;
3653;SDS011;70277;54.302;10.064;2023-09-07T13:02:49;3.45;;;2.80;;
3653;SDS011;70277;54.302;10.064;2023-09-07T13:05:16;6.15;;;3.00;;
3653;SDS011;70277;54.302;10.064;2023-09-07T13:07:42;9.43;;;2.90;;
3653;SDS011;70277;54.302;10.064;2023-09-07T13:10:10;5.05;;;2.75;;
3653;SDS011;70277;54.302;10.064;2023-09-07T13:12:37;4.57;;;3.03;;
3653;SDS011;70277;54.302;10.064;2023-09-07T13:15:04;3.40;;;2.90;;
3653;SDS011;70277;54.302;10.064;2023-09-07T13:17:31;5.00;;;3.00;;
3653;SDS011;70277;54.302;10.064;2023-09-07T13:19:57;4.43;;;2.65;;
3653;SDS011;70277;54.302;10.064;2023-09-07T13:22:24;4.00;;;3.17;;
3653;SDS011;70277;54.302;10.064;2023-09-07T13:24:50;5.22;;;2.88;;
3653;SDS011;70277;54.302;10.064;2023-09-07T13:27:17;9.60;;;3.35;;
3653;SDS011;70277;54.302;10.064;2023-09-07T13:29:44;4.72;;;3.20;;
3653;SDS011;70277;54.302;10.064;2023-09-07T13:32:10;4.50;;;3.17;;
3653;SDS011;70277;54.302;10.064;2023-09-07T13:34:37;5.35;;;3.63;;
3653;SDS011;70277;54.302;10.064;2023-09-07T13:37:03;3.90;;;3.20;;
3653;SDS011;70277;54.302;10.064;2023-09-07T13:39:30;4.15;;;3.08;;
3653;SDS011;70277;54.302;10.064;2023-09-07T13:41:56;4.93;;;3.15;;
3653;SDS011;70277;54.302;10.064;2023-09-07T13:44:22;5.22;;;3.10;;
3653;SDS011;70277;54.302;10.064;2023-09-07T13:46:49;23.95;;;3.72;;
3653;SDS011;70277;54.302;10.064;2023-09-07T13:49:16;5.13;;;3.20;;
3653;SDS011;70277;54.302;10.064;2023-09-07T13:51:42;3.63;;;3.33;;
3653;SDS011;70277;54.302;10.064;2023-09-07T13:54:09;3.50;;;3.25;;
3653;SDS011;70277;54.302;10.064;2023-09-07T13:56:35;9.38;;;3.72;;
3653;SDS011;70277;54.302;10.064;2023-09-07T13:59:03;8.38;;;3.50;;
3653;SDS011;70277;54.302;10.064;2023-09-07T14:01:29;3.47;;;3.22;;
3653;SDS011;70277;54.302;10.064;2023-09-07T14:03:56;4.85;;;3.63;;
3653;SDS011;70277;54.302;10.064;2023-09-07T14:06:23;6.45;;;3.60;;
3653;SDS011;70277;54.302;10.064;2023-09-07T14:08:50;12.20;;;3.78;;
3653;SDS011;70277;54.302;10.064;2023-09-07T14:11:17;4.82;;;3.58;;
3653;SDS011;70277;54.302;10.064;2023-09-07T14:13:44;8.38;;;3.97;;
3653;SDS011;70277;54.302;10.064;2023-09-07T14:16:10;5.47;;;4.07;;
3653;SDS011;70277;54.302;10.064;2023-09-07T14:18:37;7.00;;;3.42;;
3653;SDS011;70277;54.302;10.064;2023-09-07T14:21:03;8.32;;;3.50;;
3653;SDS011;70277;54.302;10.064;2023-09-07T14:23:30;8.45;;;4.22;;
3653;SDS011;70277;54.302;10.064;2023-09-07T14:25:57;5.25;;;3.78;;
3653;SDS011;70277;54.302;10.064;2023-09-07T14:28:25;11.27;;;3.87;;
3653;SDS011;70277;54.302;10.064;2023-09-07T14:30:52;10.65;;;3.85;;
3653;SDS011;70277;54.302;10.064;2023-09-07T14:33:20;5.65;;;3.58;;
3653;SDS011;70277;54.302;10.064;2023-09-07T14:35:47;7.18;;;3.58;;
3653;SDS011;70277;54.302;10.064;2023-09-07T14:38:18;6.35;;;3.60;;
3653;SDS011;70277;54.302;10.064;2023-09-07T14:40:44;9.48;;;3.83;;
3653;SDS011;70277;54.302;10.064;2023-09-07T14:43:11;6.30;;;3.90;;
3653;SDS011;70277;54.302;10.064;2023-09-07T14:45:38;6.43;;;3.70;;
3653;SDS011;70277;54.302;10.064;2023-09-07T14:48:05;9.13;;;4.40;;
3653;SDS011;70277;54.302;10.064;2023-09-07T14:50:32;5.90;;;4.10;;
3653;SDS011;70277;54.302;10.064;2023-09-07T14:52:59;8.82;;;4.47;;
3653;SDS011;70277;54.302;10.064;2023-09-07T14:55:25;6.25;;;4.22;;